Time;durP1;ratioP1;P1;durP2;ratioP2;P2;SDS_P1;SDS_P2;PMS_P1;PMS_P2;Temp;Humidity;BMP_temperature;BMP_pressure;BME280_temperature;BME280_humidity;BME280_pressure;Samples;Min_cycle;Max_cycle;Signal;HPM_P1;HPM_P2
2024/02/02 00:00:35;;;;;;;13.95;5.35;;;2.40;99.90;;;;;;5068311;28;20045;-78
2024/02/02 00:03:01;;;;;;;16.98;6.22;;;2.40;99.90;;;;;;5058663;28;20021;-78
2024/02/02 00:05:26;;;;;;;16.88;5.88;;;2.40;99.90;;;;;;5069109;28;20016;-77
2024/02/02 00:07:52;;;;;;;17.85;6.50;;;2.40;99.90;;;;;;5065249;28;20057;-77
2024/02/02 00:10:18;;;;;;;14.60;6.70;;;2.40;99.90;;;;;;5069392;28;20029;-78
2024/02/02 00:12:43;;;;;;;17.15;6.40;;;2.40;99.90;;;;;;5068545;28;20085;-78
2024/02/02 00:15:09;;;;;;;18.05;6.10;;;2.40;99.90;;;;;;5069634;28;20111;-77
2024/02/02 00:17:35;;;;;;;15.77;5.68;;;2.40;99.90;;;;;;5069927;28;20504;-78
2024/02/02 00:20:01;;;;;;;17.00;6.75;;;2.40;99.90;;;;;;5069046;28;20025;-78
2024/02/02 00:22:26;;;;;;;13.30;5.85;;;2.40;99.90;;;;;;5068902;28;20016;-78
2024/02/02 00:24:52;;;;;;;17.52;6.47;;;2.40;99.90;;;;;;5071697;28;20017;-77
2024/02/02 00:27:20;;;;;;;13.82;5.60;;;2.40;99.90;;;;;;5072162;28;20021;-77
2024/02/02 00:29:46;;;;;;;18.13;5.88;;;2.40;99.90;;;;;;5070561;28;20040;-77
2024/02/02 00:32:15;;;;;;;18.88;6.78;;;2.40;99.90;;;;;;5071340;28;20579;-78
2024/02/02 00:34:41;;;;;;;18.23;5.32;;;2.40;99.90;;;;;;5057624;28;20012;-78
2024/02/02 00:37:07;;;;;;;20.00;7.30;;;2.40;99.90;;;;;;5071036;28;20017;-79
2024/02/02 00:39:33;;;;;;;16.67;8.40;;;2.40;99.90;;;;;;5058279;28;20032;-77
2024/02/02 00:41:59;;;;;;;13.85;5.80;;;2.40;99.90;;;;;;5072040;28;20036;-78
2024/02/02 00:44:25;;;;;;;17.77;6.65;;;2.30;99.90;;;;;;5070966;28;20028;-78
2024/02/02 00:46:50;;;;;;;17.70;7.07;;;2.30;99.90;;;;;;5072191;28;20023;-79
2024/02/02 00:49:16;;;;;;;12.50;6.40;;;2.30;99.90;;;;;;5070256;28;20032;-78
2024/02/02 00:51:42;;;;;;;13.35;5.90;;;2.30;99.90;;;;;;5072054;28;20093;-78
2024/02/02 00:54:08;;;;;;;13.40;5.65;;;2.30;99.90;;;;;;5069316;28;20025;-78
2024/02/02 00:56:33;;;;;;;15.60;5.05;;;2.30;99.90;;;;;;5072129;28;20107;-78
2024/02/02 00:58:59;;;;;;;17.30;5.30;;;2.30;99.90;;;;;;5064558;28;20099;-79
2024/02/02 01:01:25;;;;;;;11.95;5.07;;;2.30;99.90;;;;;;5070880;28;20068;-78
2024/02/02 01:03:51;;;;;;;15.88;6.13;;;2.30;99.90;;;;;;5071923;28;20044;-78
2024/02/02 01:06:17;;;;;;;15.65;6.10;;;2.30;99.90;;;;;;5070897;28;20016;-78
2024/02/02 01:08:43;;;;;;;19.27;6.43;;;2.30;99.90;;;;;;5066590;28;20124;-79
2024/02/02 01:11:08;;;;;;;16.27;5.28;;;2.30;99.90;;;;;;5070307;28;20477;-79
2024/02/02 01:13:34;;;;;;;19.17;5.43;;;2.30;99.90;;;;;;5070766;28;20059;-78
2024/02/02 01:16:00;;;;;;;14.73;4.97;;;2.30;99.90;;;;;;5071594;28;20084;-79
2024/02/02 01:18:26;;;;;;;17.45;5.80;;;2.40;99.90;;;;;;5068590;28;20039;-79
2024/02/02 01:20:52;;;;;;;13.48;5.65;;;2.30;99.90;;;;;;5071857;28;20017;-78
2024/02/02 01:23:17;;;;;;;14.20;6.30;;;2.40;99.90;;;;;;5068967;28;20498;-78
2024/02/02 01:25:43;;;;;;;14.63;5.65;;;2.30;99.90;;;;;;5071659;28;20024;-78
2024/02/02 01:28:09;;;;;;;20.50;6.05;;;2.40;99.90;;;;;;5065780;28;20513;-78
2024/02/02 01:30:34;;;;;;;15.48;4.65;;;2.40;99.90;;;;;;5070132;28;20040;-78
2024/02/02 01:33:00;;;;;;;14.20;5.40;;;2.30;99.90;;;;;;5066597;28;20012;-78
2024/02/02 01:35:26;;;;;;;17.80;6.32;;;2.30;99.90;;;;;;5074033;28;20028;-78
2024/02/02 01:37:52;;;;;;;12.13;4.22;;;2.40;99.90;;;;;;5070275;28;20124;-77
2024/02/02 01:40:19;;;;;;;19.95;5.45;;;2.40;99.90;;;;;;5073561;28;20092;-78
2024/02/02 01:42:45;;;;;;;16.77;4.38;;;2.40;99.90;;;;;;5071269;28;20496;-78
2024/02/02 01:45:11;;;;;;;19.65;4.50;;;2.40;99.90;;;;;;5072267;28;20017;-79
2024/02/02 01:47:37;;;;;;;10.27;4.53;;;2.40;99.90;;;;;;5073409;28;20112;-78
2024/02/02 01:50:03;;;;;;;15.23;4.15;;;2.40;99.90;;;;;;5073948;28;20051;-78
2024/02/02 01:52:30;;;;;;;14.55;5.22;;;2.40;99.90;;;;;;5073273;28;20021;-78
2024/02/02 01:54:56;;;;;;;11.38;4.65;;;2.40;99.90;;;;;;5074067;28;20401;-78
2024/02/02 01:57:22;;;;;;;17.83;3.65;;;2.40;99.90;;;;;;5074967;28;20031;-78
2024/02/02 01:59:48;;;;;;;13.50;4.47;;;2.40;99.90;;;;;;5072928;28;20016;-78
2024/02/02 02:02:14;;;;;;;14.02;5.07;;;2.40;99.90;;;;;;5072486;28;20017;-78
2024/02/02 02:04:40;;;;;;;14.05;3.78;;;2.30;99.90;;;;;;5072299;28;20452;-79
2024/02/02 02:07:06;;;;;;;12.55;5.10;;;2.30;99.90;;;;;;5071973;28;20389;-78
2024/02/02 02:09:33;;;;;;;13.05;3.78;;;2.40;99.90;;;;;;5073912;28;20028;-78
2024/02/02 02:12:00;;;;;;;15.68;5.10;;;2.40;99.90;;;;;;5073162;28;20024;-77
2024/02/02 02:14:26;;;;;;;13.95;4.70;;;2.40;99.90;;;;;;5070714;28;20191;-78
2024/02/02 02:16:51;;;;;;;13.52;6.05;;;2.40;99.90;;;;;;5074457;28;20100;-78
2024/02/02 02:19:17;;;;;;;17.50;5.15;;;2.40;99.90;;;;;;5071430;28;20031;-78
2024/02/02 02:21:43;;;;;;;12.93;3.95;;;2.40;99.90;;;;;;5074365;28;20017;-77
2024/02/02 02:24:09;;;;;;;10.90;4.43;;;2.40;99.90;;;;;;5068480;28;20021;-78
2024/02/02 02:26:35;;;;;;;12.38;3.63;;;2.40;99.90;;;;;;5074460;28;20036;-78
2024/02/02 02:29:01;;;;;;;14.43;4.47;;;2.40;99.90;;;;;;5073448;28;20052;-76
2024/02/02 02:31:27;;;;;;;9.20;4.55;;;2.40;99.90;;;;;;5074134;28;20066;-76
2024/02/02 02:33:53;;;;;;;10.30;4.35;;;2.40;99.90;;;;;;5071493;28;20029;-76
2024/02/02 02:36:22;;;;;;;8.65;3.95;;;2.40;99.90;;;;;;5074170;28;20032;-77
2024/02/02 02:38:48;;;;;;;14.13;3.80;;;2.30;99.90;;;;;;5069897;28;20021;-77
2024/02/02 02:41:14;;;;;;;10.38;4.60;;;2.30;99.90;;;;;;5074155;28;20391;-78
2024/02/02 02:43:40;;;;;;;14.82;3.95;;;2.30;99.90;;;;;;5062563;28;20430;-78
2024/02/02 02:46:07;;;;;;;11.98;4.15;;;2.30;99.90;;;;;;5073456;28;20035;-78
2024/02/02 02:48:33;;;;;;;13.07;3.60;;;2.30;99.90;;;;;;5064652;28;20078;-77
2024/02/02 02:50:58;;;;;;;9.38;4.18;;;2.30;99.90;;;;;;5073935;28;20008;-77
2024/02/02 02:53:24;;;;;;;13.40;4.47;;;2.30;99.90;;;;;;5073505;28;20099;-77
2024/02/02 02:55:50;;;;;;;13.07;3.88;;;2.30;99.90;;;;;;5073900;28;20038;-77
2024/02/02 02:58:16;;;;;;;8.30;4.50;;;2.30;99.90;;;;;;5066879;28;20017;-78
2024/02/02 03:00:42;;;;;;;9.57;4.20;;;2.30;99.90;;;;;;5073512;28;20028;-78
2024/02/02 03:03:08;;;;;;;10.95;3.92;;;2.30;99.90;;;;;;5065568;28;20032;-78
2024/02/02 03:05:34;;;;;;;8.98;2.92;;;2.30;99.90;;;;;;5071886;28;20021;-76
2024/02/02 03:08:00;;;;;;;17.05;3.80;;;2.30;99.90;;;;;;5067648;28;20017;-77
2024/02/02 03:10:25;;;;;;;14.68;3.67;;;2.30;99.90;;;;;;5073385;28;20047;-78
2024/02/02 03:12:54;;;;;;;12.23;4.25;;;2.20;99.90;;;;;;5073130;28;20020;-77
2024/02/02 03:15:21;;;;;;;11.23;3.67;;;2.20;99.90;;;;;;5088930;28;20021;-77
2024/02/02 03:17:47;;;;;;;13.50;3.60;;;2.30;99.90;;;;;;5069271;28;20056;-76
2024/02/02 03:20:13;;;;;;;12.80;5.82;;;2.20;99.90;;;;;;5073097;28;20025;-78
2024/02/02 03:22:39;;;;;;;17.10;4.05;;;2.20;99.90;;;;;;5074508;28;20019;-76
2024/02/02 03:25:06;;;;;;;9.40;3.92;;;2.20;99.90;;;;;;5068163;28;20047;-76
2024/02/02 03:27:32;;;;;;;11.35;3.60;;;2.20;99.90;;;;;;5080322;28;20071;-78
2024/02/02 03:29:58;;;;;;;13.85;4.35;;;2.30;99.90;;;;;;5073471;28;20025;-77
2024/02/02 03:32:24;;;;;;;7.30;4.03;;;2.20;99.90;;;;;;5082411;28;20019;-76
2024/02/02 03:34:49;;;;;;;11.82;3.75;;;2.20;99.90;;;;;;5069423;28;20048;-78
2024/02/02 03:37:15;;;;;;;10.50;3.60;;;2.20;99.90;;;;;;5073092;28;20367;-77
2024/02/02 03:39:41;;;;;;;9.77;3.28;;;2.20;99.90;;;;;;5081103;28;20024;-77
2024/02/02 03:42:08;;;;;;;13.13;4.53;;;2.20;99.90;;;;;;5070949;28;20542;-78
2024/02/02 03:44:33;;;;;;;9.38;3.35;;;2.20;99.90;;;;;;5073018;28;20445;-78
2024/02/02 03:46:59;;;;;;;18.17;3.75;;;2.20;99.90;;;;;;5071167;28;20048;-78
2024/02/02 03:49:25;;;;;;;14.40;4.75;;;2.10;99.90;;;;;;5064408;28;20397;-78
2024/02/02 03:51:50;;;;;;;11.90;3.55;;;2.20;99.90;;;;;;5070753;28;20107;-76
2024/02/02 03:54:16;;;;;;;8.40;4.05;;;2.10;99.90;;;;;;5071939;28;20477;-77
2024/02/02 03:56:42;;;;;;;10.95;3.53;;;2.10;99.90;;;;;;5082256;28;20103;-78
2024/02/02 03:59:09;;;;;;;10.68;4.07;;;2.00;99.90;;;;;;5061275;28;20115;-76
2024/02/02 04:01:35;;;;;;;15.43;3.55;;;2.00;99.90;;;;;;5071357;28;20025;-76
2024/02/02 04:04:01;;;;;;;9.85;3.40;;;1.90;99.90;;;;;;5059720;28;20039;-78
2024/02/02 04:06:28;;;;;;;14.90;4.70;;;1.80;99.90;;;;;;5072274;28;20036;-78
2024/02/02 04:08:53;;;;;;;14.05;3.25;;;1.80;99.90;;;;;;5064458;28;20131;-78
2024/02/02 04:11:20;;;;;;;13.40;3.83;;;1.80;99.90;;;;;;5066352;28;20052;-78
2024/02/02 04:13:46;;;;;;;10.25;4.30;;;1.70;99.90;;;;;;5071681;28;20055;-76
2024/02/02 04:16:12;;;;;;;8.65;4.15;;;1.70;99.90;;;;;;5072625;28;20024;-76
2024/02/02 04:18:37;;;;;;;10.60;4.30;;;1.60;99.90;;;;;;5064429;28;20030;-78
2024/02/02 04:21:03;;;;;;;26.60;5.03;;;1.70;99.90;;;;;;5071187;28;20031;-78
2024/02/02 04:23:29;;;;;;;20.92;4.93;;;1.60;99.90;;;;;;5070638;28;20493;-78
2024/02/02 04:25:54;;;;;;;12.68;4.00;;;1.50;99.90;;;;;;5071286;28;20027;-77
2024/02/02 04:28:20;;;;;;;14.30;4.32;;;1.40;99.90;;;;;;5068195;28;20045;-78
2024/02/02 04:30:46;;;;;;;17.30;4.43;;;1.40;99.90;;;;;;5082952;28;20036;-77
2024/02/02 04:33:11;;;;;;;8.85;3.95;;;1.40;99.90;;;;;;5072302;28;20013;-76
2024/02/02 04:35:38;;;;;;;13.45;4.80;;;1.40;99.90;;;;;;5072477;28;20387;-77
2024/02/02 04:38:04;;;;;;;16.17;4.68;;;1.40;99.90;;;;;;5070307;28;20431;-78
2024/02/02 04:40:30;;;;;;;13.38;4.00;;;1.40;99.90;;;;;;5071153;28;20017;-78
2024/02/02 04:42:57;;;;;;;13.75;5.03;;;1.30;99.90;;;;;;5070042;28;20032;-78
2024/02/02 04:45:23;;;;;;;16.10;4.45;;;1.40;99.90;;;;;;5072484;28;20021;-77
2024/02/02 04:47:49;;;;;;;19.98;4.90;;;1.40;99.90;;;;;;5070131;28;20024;-77
2024/02/02 04:50:15;;;;;;;11.70;5.47;;;1.40;99.90;;;;;;5072330;28;20393;-77
2024/02/02 04:52:41;;;;;;;16.40;5.05;;;1.40;99.90;;;;;;5069574;28;20475;-77
2024/02/02 04:55:08;;;;;;;11.85;5.35;;;1.50;99.90;;;;;;5063586;28;20052;-76
2024/02/02 04:57:33;;;;;;;15.77;7.13;;;1.40;99.90;;;;;;5069551;28;20013;-77
2024/02/02 04:59:59;;;;;;;13.20;5.10;;;1.50;99.90;;;;;;5065033;28;20027;-78
2024/02/02 05:02:25;;;;;;;12.85;5.20;;;1.50;99.90;;;;;;5067858;28;20482;-77
2024/02/02 05:04:51;;;;;;;17.83;5.63;;;1.50;99.90;;;;;;5071053;28;20025;-78
2024/02/02 05:07:17;;;;;;;25.65;7.57;;;1.50;99.90;;;;;;5071901;28;20040;-78
2024/02/02 05:09:43;;;;;;;20.42;5.70;;;1.50;99.90;;;;;;5067229;28;20043;-76
2024/02/02 05:12:08;;;;;;;14.60;4.47;;;1.50;99.90;;;;;;5074276;28;20012;-78
2024/02/02 05:14:34;;;;;;;16.63;4.90;;;1.50;99.90;;;;;;5070967;28;20489;-76
2024/02/02 05:17:01;;;;;;;90.80;30.40;;;1.50;99.90;;;;;;5075608;28;20024;-76
2024/02/02 05:19:26;;;;;;;114.47;38.40;;;1.50;99.90;;;;;;5070950;28;20020;-77
2024/02/02 05:21:52;;;;;;;118.68;40.35;;;1.50;99.90;;;;;;5075434;28;20537;-77
2024/02/02 05:24:18;;;;;;;35.90;13.35;;;1.50;99.90;;;;;;5074228;28;20047;-77
2024/02/02 05:26:43;;;;;;;295.85;105.07;;;1.50;99.90;;;;;;5075521;28;20065;-77
2024/02/02 05:29:09;;;;;;;56.95;19.73;;;1.50;99.90;;;;;;5069723;28;20087;-77
2024/02/02 05:31:35;;;;;;;96.78;33.58;;;1.50;99.90;;;;;;5087845;28;20032;-77
2024/02/02 05:34:00;;;;;;;140.75;48.28;;;1.50;99.90;;;;;;5074133;28;20485;-76
2024/02/02 05:36:26;;;;;;;53.75;19.33;;;1.50;99.90;;;;;;5073336;28;20025;-78
2024/02/02 05:38:52;;;;;;;39.88;14.45;;;1.50;99.90;;;;;;5073977;28;20478;-78
2024/02/02 05:41:17;;;;;;;32.45;12.52;;;1.50;99.90;;;;;;5073983;28;20035;-77
2024/02/02 05:43:43;;;;;;;159.82;52.75;;;1.50;99.90;;;;;;5074477;28;20028;-77
2024/02/02 05:46:09;;;;;;;163.98;50.72;;;1.50;99.90;;;;;;5073988;28;20023;-78
2024/02/02 05:48:35;;;;;;;42.75;14.82;;;1.50;99.90;;;;;;5074718;28;20401;-78
2024/02/02 05:51:00;;;;;;;19.23;6.90;;;1.50;99.90;;;;;;5073629;28;20016;-78
2024/02/02 05:53:26;;;;;;;41.47;9.48;;;1.50;99.90;;;;;;5074953;28;20028;-77
2024/02/02 05:55:51;;;;;;;31.27;9.80;;;1.50;99.90;;;;;;5075161;28;20052;-76
2024/02/02 05:58:17;;;;;;;56.25;15.77;;;1.50;99.90;;;;;;5071302;28;20046;-77
2024/02/02 06:00:43;;;;;;;62.30;19.95;;;1.50;99.90;;;;;;5058423;28;20063;-78
2024/02/02 06:03:08;;;;;;;51.20;17.58;;;1.50;99.90;;;;;;5056640;28;20071;-78
2024/02/02 06:05:34;;;;;;;30.75;11.00;;;1.50;99.90;;;;;;5068071;28;20537;-78
2024/02/02 06:08:06;;;;;;;101.65;31.40;;;1.60;99.90;;;;;;5064392;28;20473;-78
2024/02/02 06:10:32;;;;;;;21.27;7.10;;;1.60;99.90;;;;;;5072878;28;20531;-78
2024/02/02 06:12:58;;;;;;;66.75;24.05;;;1.60;99.90;;;;;;5071359;28;20078;-77
2024/02/02 06:15:24;;;;;;;49.72;16.48;;;1.60;99.90;;;;;;5072865;28;20047;-78
2024/02/02 06:17:51;;;;;;;94.65;31.77;;;1.60;99.90;;;;;;5069767;28;20053;-78
2024/02/02 06:20:17;;;;;;;45.95;15.95;;;1.60;99.90;;;;;;5071285;28;20026;-76
2024/02/02 06:22:43;;;;;;;17.42;7.03;;;1.60;99.90;;;;;;5068193;28;20031;-78
2024/02/02 06:25:09;;;;;;;143.05;50.25;;;1.60;99.90;;;;;;5071665;28;20016;-77
2024/02/02 06:27:36;;;;;;;44.97;19.80;;;1.60;99.90;;;;;;5072932;28;20075;-76
2024/02/02 06:30:03;;;;;;;18.35;7.20;;;1.60;99.90;;;;;;5076544;28;20119;-76
2024/02/02 06:32:29;;;;;;;27.40;10.18;;;1.60;99.90;;;;;;5075067;28;20393;-76
2024/02/02 06:34:55;;;;;;;74.07;35.80;;;1.60;99.90;;;;;;5069942;28;20028;-76
2024/02/02 06:37:23;;;;;;;43.63;16.95;;;1.60;99.90;;;;;;5059681;28;20410;-78
2024/02/02 06:39:51;;;;;;;37.63;17.60;;;1.60;99.90;;;;;;5070155;28;20479;-76
2024/02/02 06:42:20;;;;;;;37.33;13.98;;;1.60;99.90;;;;;;5070913;28;20028;-75
2024/02/02 06:44:46;;;;;;;40.38;12.40;;;1.70;99.90;;;;;;5063218;28;20024;-76
2024/02/02 06:47:12;;;;;;;29.75;9.45;;;1.60;99.90;;;;;;5065064;28;20021;-75
2024/02/02 06:49:37;;;;;;;82.38;24.83;;;1.60;99.90;;;;;;5062228;28;20082;-76
2024/02/02 06:52:03;;;;;;;100.95;30.17;;;1.70;99.90;;;;;;5072772;28;20020;-78
2024/02/02 06:54:29;;;;;;;45.10;12.77;;;1.60;99.90;;;;;;5063657;28;20456;-78
2024/02/02 06:56:55;;;;;;;22.70;7.65;;;1.60;99.90;;;;;;5072473;28;20429;-75
2024/02/02 06:59:21;;;;;;;125.70;38.53;;;1.70;99.90;;;;;;5073222;28;20020;-75
2024/02/02 07:01:47;;;;;;;27.73;10.30;;;1.70;99.90;;;;;;5073488;28;20108;-77
2024/02/02 07:04:14;;;;;;;28.63;8.48;;;1.70;99.90;;;;;;5060323;28;20020;-75
2024/02/02 07:06:40;;;;;;;78.05;23.33;;;1.70;99.90;;;;;;5071728;28;20017;-75
2024/02/02 07:09:28;;;;;;;21.60;7.40;;;1.70;99.90;;;;;;5072019;28;20061;-77
2024/02/02 07:11:55;;;;;;;41.65;15.88;;;1.70;99.90;;;;;;5072160;28;20033;-75
2024/02/02 07:14:43;;;;;;;25.85;9.27;;;1.70;99.90;;;;;;5069008;28;20070;-75
2024/02/02 07:17:24;;;;;;;34.05;11.20;;;1.70;99.90;;;;;;5072113;28;20021;-75
2024/02/02 07:19:50;;;;;;;18.13;7.55;;;1.70;99.90;;;;;;5058681;28;20016;-76
2024/02/02 07:22:34;;;;;;;32.20;12.15;;;1.70;99.90;;;;;;5073427;28;20016;-75
2024/02/02 07:25:00;;;;;;;32.22;14.77;;;1.70;99.90;;;;;;5069675;28;20028;-77
2024/02/02 07:27:49;;;;;;;30.33;13.80;;;1.70;99.90;;;;;;5065373;28;20128;-75
2024/02/02 07:30:34;;;;;;;17.65;7.35;;;1.80;99.90;;;;;;5083544;28;20091;-77
2024/02/02 07:33:00;;;;;;;44.50;19.63;;;1.80;99.90;;;;;;5067124;28;20374;-75
2024/02/02 07:35:34;;;;;;;29.85;15.90;;;1.80;99.90;;;;;;5071729;28;20048;-75
2024/02/02 07:38:06;;;;;;;29.55;11.38;;;1.80;99.90;;;;;;5068583;28;20035;-77
2024/02/02 07:41:01;;;;;;;18.95;6.93;;;1.90;99.90;;;;;;5071734;28;20025;-77
2024/02/02 07:43:27;;;;;;;24.48;9.80;;;1.80;99.90;;;;;;5068294;28;20489;-76
2024/02/02 07:45:53;;;;;;;17.75;7.25;;;1.90;99.90;;;;;;5071531;28;20029;-78
2024/02/02 07:48:19;;;;;;;26.83;9.68;;;1.90;99.90;;;;;;5070055;28;20038;-76
2024/02/02 07:50:45;;;;;;;24.38;7.65;;;2.00;99.90;;;;;;5069947;28;20102;-77
2024/02/02 07:53:11;;;;;;;33.55;10.13;;;2.10;99.90;;;;;;5066424;28;20029;-76
2024/02/02 07:55:36;;;;;;;15.43;6.57;;;2.20;99.90;;;;;;5071514;28;20016;-76
2024/02/02 07:58:02;;;;;;;16.13;5.30;;;2.30;99.90;;;;;;5068045;28;20044;-77
2024/02/02 08:00:28;;;;;;;18.85;6.93;;;2.40;99.90;;;;;;5071481;28;20363;-74
2024/02/02 08:02:53;;;;;;;20.38;6.90;;;2.40;99.90;;;;;;5066442;28;20027;-75
2024/02/02 08:05:19;;;;;;;28.35;7.97;;;2.40;99.90;;;;;;5071287;28;20036;-77
2024/02/02 08:07:44;;;;;;;28.45;9.70;;;2.40;99.90;;;;;;5069171;28;20024;-74
2024/02/02 08:10:11;;;;;;;32.85;11.55;;;2.40;99.90;;;;;;5069892;28;20032;-75
2024/02/02 08:12:37;;;;;;;27.30;8.82;;;2.50;99.90;;;;;;5065415;28;20032;-77
2024/02/02 08:15:03;;;;;;;28.38;7.40;;;2.50;99.90;;;;;;5070150;28;20060;-75
2024/02/02 08:17:29;;;;;;;16.63;7.00;;;2.50;99.90;;;;;;5071094;28;20051;-75
2024/02/02 08:19:55;;;;;;;19.02;7.13;;;2.40;99.90;;;;;;5071151;28;20438;-77
2024/02/02 08:22:20;;;;;;;31.80;8.95;;;2.40;99.90;;;;;;5067918;28;20393;-77
2024/02/02 08:24:46;;;;;;;15.18;5.38;;;2.30;99.90;;;;;;5070789;28;20119;-77
2024/02/02 08:27:12;;;;;;;24.15;8.05;;;2.40;99.90;;;;;;5069776;28;20086;-77
2024/02/02 08:29:37;;;;;;;24.02;6.97;;;2.30;99.90;;;;;;5065776;28;20499;-77
2024/02/02 08:42:52;;;;;;;26.27;11.77;;;2.30;99.90;;;;;;5041801;27;20464;-76
2024/02/02 08:46:06;;;;;;;29.02;14.68;;;2.40;99.90;;;;;;5042483;27;20021;-76
2024/02/02 08:48:38;;;;;;;24.15;10.02;;;2.40;99.90;;;;;;5038535;27;20484;-75
2024/02/02 08:51:22;;;;;;;20.23;9.65;;;2.40;99.90;;;;;;5040911;27;20528;-75
2024/02/02 08:53:48;;;;;;;19.58;8.13;;;2.50;99.90;;;;;;5039604;27;20025;-75
2024/02/02 08:56:15;;;;;;;21.70;8.63;;;2.50;99.90;;;;;;5047707;27;20037;-75
2024/02/02 08:58:41;;;;;;;25.95;9.02;;;2.40;99.90;;;;;;5029468;27;20014;-73
2024/02/02 09:01:41;;;;;;;11.25;6.70;;;2.40;99.90;;;;;;5040959;28;20021;-75
2024/02/02 09:04:51;;;;;;;26.30;10.73;;;2.40;99.90;;;;;;5044106;27;20525;-74
2024/02/02 09:07:17;;;;;;;21.95;7.90;;;2.50;99.90;;;;;;5042378;27;20033;-75
2024/02/02 09:09:43;;;;;;;18.38;7.57;;;2.50;99.90;;;;;;5047626;27;20100;-74
2024/02/02 09:12:10;;;;;;;17.13;7.00;;;2.60;99.90;;;;;;5044154;27;20049;-74
2024/02/02 09:14:36;;;;;;;26.00;7.75;;;2.60;99.90;;;;;;5045324;27;20027;-75
2024/02/02 09:17:02;;;;;;;21.90;7.35;;;2.60;99.90;;;;;;5041308;27;20120;-74
2024/02/02 09:19:40;;;;;;;26.40;9.63;;;2.70;99.90;;;;;;5043757;27;20033;-75
2024/02/02 09:22:15;;;;;;;18.27;6.03;;;2.80;99.90;;;;;;5033053;27;20037;-75
2024/02/02 09:24:51;;;;;;;17.52;6.22;;;2.80;99.90;;;;;;5044365;27;20025;-75
2024/02/02 09:27:30;;;;;;;24.65;9.40;;;2.90;99.90;;;;;;5016787;27;20158;-75
2024/02/02 09:29:55;;;;;;;14.85;5.68;;;2.90;99.90;;;;;;5034736;27;20026;-75
2024/02/02 09:32:22;;;;;;;13.77;5.75;;;3.00;99.90;;;;;;5044518;27;20041;-75
2024/02/02 09:34:47;;;;;;;16.88;5.80;;;2.90;99.90;;;;;;5044915;27;20100;-75
2024/02/02 09:37:24;;;;;;;12.25;6.13;;;3.00;99.90;;;;;;5044253;27;20108;-75
2024/02/02 09:39:57;;;;;;;17.02;7.00;;;3.10;99.90;;;;;;5045208;27;20029;-74
2024/02/02 09:42:49;;;;;;;20.00;6.25;;;3.10;99.90;;;;;;5038153;27;20114;-75
2024/02/02 09:45:24;;;;;;;13.20;5.63;;;3.10;99.90;;;;;;5027203;27;20025;-75
2024/02/02 09:48:32;;;;;;;14.32;5.57;;;3.10;99.90;;;;;;5029649;28;20038;-76
2024/02/02 09:51:02;;;;;;;17.15;5.78;;;3.10;99.90;;;;;;5030205;27;20046;-75
2024/02/02 09:53:37;;;;;;;20.42;5.93;;;3.10;99.90;;;;;;5030411;27;20061;-75
2024/02/02 09:56:21;;;;;;;16.33;6.70;;;3.10;99.90;;;;;;5032138;27;20014;-75
2024/02/02 09:58:57;;;;;;;22.38;7.55;;;3.10;99.90;;;;;;5033985;27;20030;-75
2024/02/02 10:01:46;;;;;;;18.35;7.35;;;3.10;99.90;;;;;;5025781;28;20462;-75
2024/02/02 10:04:46;;;;;;;16.58;4.95;;;3.10;99.90;;;;;;5026023;28;20109;-75
2024/02/02 10:07:39;;;;;;;17.33;5.07;;;3.10;99.90;;;;;;5018764;27;20041;-75
2024/02/02 10:10:23;;;;;;;18.20;5.13;;;3.10;99.90;;;;;;5033993;27;20482;-75
2024/02/02 10:12:52;;;;;;;11.50;4.80;;;3.20;99.90;;;;;;5031698;27;20061;-75
2024/02/02 10:15:38;;;;;;;17.63;6.38;;;3.10;99.90;;;;;;5027599;27;20036;-75
2024/02/02 10:18:26;;;;;;;25.95;9.77;;;3.20;99.90;;;;;;5030293;28;20132;-75
2024/02/02 10:21:05;;;;;;;32.13;14.50;;;3.20;99.90;;;;;;5026559;27;20029;-75
2024/02/02 10:23:34;;;;;;;16.38;5.18;;;3.10;99.90;;;;;;5029991;28;20043;-75
2024/02/02 10:26:22;;;;;;;148.10;58.65;;;3.10;99.90;;;;;;5020588;28;20074;-75
2024/02/02 10:28:56;;;;;;;42.83;17.38;;;3.10;99.90;;;;;;5030390;28;20033;-75
2024/02/02 10:31:41;;;;;;;26.10;9.10;;;3.20;99.90;;;;;;5016454;27;20078;-75
2024/02/02 10:34:09;;;;;;;22.58;7.15;;;3.30;99.90;;;;;;5046555;27;20390;-75
2024/02/02 10:36:47;;;;;;;13.35;5.07;;;3.40;99.90;;;;;;5030421;28;20079;-75
2024/02/02 10:39:24;;;;;;;15.25;4.75;;;3.40;99.90;;;;;;5031133;27;20041;-75
2024/02/02 10:42:02;;;;;;;38.40;16.92;;;3.40;99.90;;;;;;5030303;27;20046;-75
2024/02/02 10:45:06;;;;;;;145.48;56.38;;;3.40;99.90;;;;;;5022935;27;20053;-75
2024/02/02 10:47:32;;;;;;;80.85;30.38;;;3.60;99.90;;;;;;5014528;27;20041;-75
2024/02/02 10:50:03;;;;;;;86.22;35.33;;;3.80;99.90;;;;;;5028257;28;20052;-75
2024/02/02 10:52:41;;;;;;;90.10;33.13;;;4.00;99.90;;;;;;5023560;27;20068;-75
2024/02/02 10:55:19;;;;;;;66.68;24.52;;;4.30;99.90;;;;;;5027738;27;20061;-75
2024/02/02 10:58:03;;;;;;;58.92;21.35;;;4.30;95.10;;;;;;5029658;27;20049;-75
2024/02/02 11:00:37;;;;;;;49.72;19.27;;;4.30;92.00;;;;;;5027523;28;20029;-75
2024/02/02 11:03:28;;;;;;;71.70;27.40;;;4.10;89.10;;;;;;5028077;28;20129;-76
2024/02/02 11:06:06;;;;;;;50.10;22.70;;;4.10;88.10;;;;;;5023656;28;20489;-75
2024/02/02 11:08:38;;;;;;;27.35;13.52;;;3.90;90.40;;;;;;5021315;28;20126;-75
2024/02/02 11:11:10;;;;;;;27.63;10.55;;;3.90;93.70;;;;;;5042564;27;20116;-75
2024/02/02 11:13:57;;;;;;;22.77;9.82;;;3.90;93.80;;;;;;5025007;28;20113;-76
2024/02/02 11:16:55;;;;;;;11.77;5.53;;;4.00;93.90;;;;;;5025275;27;20431;-76
2024/02/02 11:19:24;;;;;;;15.90;7.78;;;4.00;87.10;;;;;;5032523;27;20049;-76
2024/02/02 11:22:04;;;;;;;20.83;7.93;;;4.10;89.50;;;;;;5031432;27;20018;-76
2024/02/02 11:24:52;;;;;;;22.40;8.05;;;4.20;88.10;;;;;;5022249;28;20049;-76
2024/02/02 11:27:36;;;;;;;16.73;5.90;;;4.20;86.60;;;;;;5027842;27;20524;-76
2024/02/02 11:30:06;;;;;;;14.63;6.35;;;4.30;88.70;;;;;;5034513;28;20563;-76
2024/02/02 11:32:54;;;;;;;18.20;6.22;;;4.30;90.00;;;;;;5026296;28;20041;-77
2024/02/02 11:35:25;;;;;;;15.95;6.50;;;4.40;90.20;;;;;;5026288;28;20359;-76
2024/02/02 11:37:56;;;;;;;16.60;7.10;;;4.40;89.70;;;;;;5028407;28;20466;-77
2024/02/02 11:40:25;;;;;;;14.65;4.55;;;4.30;88.30;;;;;;5026633;28;20086;-76
2024/02/02 11:42:55;;;;;;;19.30;5.95;;;4.30;86.10;;;;;;5028742;28;20045;-76
2024/02/02 11:45:25;;;;;;;16.10;5.60;;;4.40;88.40;;;;;;5027917;28;20412;-76
2024/02/02 11:48:03;;;;;;;11.38;5.50;;;4.50;90.20;;;;;;5029382;28;20116;-76
2024/02/02 11:50:47;;;;;;;11.77;4.45;;;4.60;85.60;;;;;;5028392;28;20824;-76
2024/02/02 11:53:26;;;;;;;15.15;4.63;;;4.50;82.20;;;;;;5029549;28;20041;-76
2024/02/02 11:56:09;;;;;;;14.43;6.85;;;4.50;81.60;;;;;;5023968;28;20026;-76
2024/02/02 11:58:39;;;;;;;50.83;17.50;;;4.60;82.80;;;;;;5027438;27;20500;-75
2024/02/02 12:01:33;;;;;;;15.23;5.30;;;4.70;82.50;;;;;;5024352;28;20070;-76
2024/02/02 12:04:19;;;;;;;22.67;7.72;;;4.70;82.10;;;;;;5027886;27;20037;-76
2024/02/02 12:07:10;;;;;;;72.25;21.35;;;4.80;80.90;;;;;;5023959;28;20033;-76
2024/02/02 12:09:43;;;;;;;39.08;15.25;;;4.90;81.60;;;;;;5027278;28;20057;-76
2024/02/02 12:12:16;;;;;;;41.08;12.65;;;4.90;80.30;;;;;;5026682;28;20029;-76
2024/02/02 12:14:52;;;;;;;11.90;4.30;;;4.90;79.70;;;;;;5019735;28;20066;-76
2024/02/02 12:17:21;;;;;;;15.23;5.50;;;4.80;79.10;;;;;;5026946;28;20437;-76
2024/02/02 12:19:47;;;;;;;186.23;74.05;;;4.70;81.30;;;;;;5024677;28;20124;-76
2024/02/02 12:22:13;;;;;;;94.43;37.63;;;4.70;82.70;;;;;;5024854;28;20018;-76
2024/02/02 12:24:40;;;;;;;22.50;7.78;;;4.60;81.90;;;;;;5022698;28;20066;-76
2024/02/02 12:27:10;;;;;;;15.68;5.05;;;4.60;81.70;;;;;;5026219;28;20022;-76
2024/02/02 12:29:36;;;;;;;18.60;7.15;;;4.70;83.10;;;;;;5028698;28;20057;-76
2024/02/02 12:32:04;;;;;;;28.85;12.65;;;4.60;82.50;;;;;;5028491;28;20045;-76
2024/02/02 12:34:29;;;;;;;12.65;5.50;;;4.60;82.30;;;;;;5018424;27;20029;-76
2024/02/02 12:36:58;;;;;;;15.43;5.65;;;4.50;82.00;;;;;;5028810;28;20022;-75
2024/02/02 12:39:30;;;;;;;9.13;4.47;;;4.60;80.80;;;;;;5026413;27;20133;-76
2024/02/02 12:41:56;;;;;;;8.38;4.65;;;4.70;80.70;;;;;;5028729;28;20397;-75
2024/02/02 12:44:24;;;;;;;18.15;6.25;;;4.80;80.20;;;;;;5028210;27;20041;-76
2024/02/02 12:46:49;;;;;;;13.07;5.55;;;4.90;81.40;;;;;;5027980;28;20112;-75
2024/02/02 12:49:15;;;;;;;21.98;8.40;;;5.00;81.80;;;;;;5028156;27;20593;-76
2024/02/02 12:51:41;;;;;;;15.88;5.90;;;5.10;82.60;;;;;;5027893;28;20049;-76
2024/02/02 12:54:11;;;;;;;20.10;5.95;;;5.00;81.50;;;;;;5021334;28;20022;-76
2024/02/02 12:56:37;;;;;;;17.35;6.88;;;4.90;82.40;;;;;;5029668;28;20053;-76
2024/02/02 12:59:04;;;;;;;12.00;5.90;;;4.90;83.30;;;;;;5027841;28;20071;-76
2024/02/02 13:01:33;;;;;;;18.67;5.80;;;5.00;84.70;;;;;;5028534;28;20052;-76
2024/02/02 13:03:59;;;;;;;12.43;5.60;;;5.00;84.70;;;;;;5025484;28;20041;-76
2024/02/02 13:06:26;;;;;;;14.00;6.60;;;5.00;84.40;;;;;;5027867;28;20075;-76
2024/02/02 13:08:53;;;;;;;17.45;6.10;;;5.00;83.50;;;;;;5026210;28;20030;-76